Terminal Aerodrome Forecast
Issued by NWS

Home | Current Version | Previous Version | Text Only | Print | Product List | Glossary Off
Versions: 1 2 3 4 5 6 7 8 9 10 11 12 13 14 15 16

317
FTUS43 KMPX 231140
TAFRNH
TAF
KRNH 231140Z 2312/2412 18012KT P6SM SCT040 OVC200
     FM232200 19014G20KT P6SM VCSH SCT025 OVC050
      TEMPO 2323/2401 5SM -TSRA OVC040CB
     FM240100 18008G15KT 6SM -SHRA OVC050
     FM240600 20005KT 6SM BR SCT090=

USA.gov is the U.S. government's official web portal to all federal, state and local government web resources and services.